sensor_id;sensor_type;location;lat;lon;timestamp;pressure;altitude;pressure_sealevel;temperature;humidity
55733;BME280;41637;52.364;9.910;2023-06-22T00:01:21;101168.17;;;18.92;79.15
55733;BME280;41637;52.364;9.910;2023-06-22T00:03:49;101169.98;;;18.88;79.20
55733;BME280;41637;52.364;9.910;2023-06-22T00:06:16;101166.29;;;18.85;79.10
55733;BME280;41637;52.364;9.910;2023-06-22T00:08:42;101163.79;;;18.82;79.21
55733;BME280;41637;52.364;9.910;2023-06-22T00:11:13;101160.77;;;18.77;79.38
55733;BME280;41637;52.364;9.910;2023-06-22T00:13:39;101155.43;;;18.73;79.44
55733;BME280;41637;52.364;9.910;2023-06-22T00:16:06;101160.52;;;18.70;79.47
55733;BME280;41637;52.364;9.910;2023-06-22T00:18:33;101160.20;;;18.66;79.87
55733;BME280;41637;52.364;9.910;2023-06-22T00:21:00;101163.05;;;18.64;79.90
55733;BME280;41637;52.364;9.910;2023-06-22T00:23:27;101173.19;;;18.62;80.14
55733;BME280;41637;52.364;9.910;2023-06-22T00:25:53;101175.73;;;18.59;80.54
55733;BME280;41637;52.364;9.910;2023-06-22T00:28:20;101178.77;;;18.55;80.63
55733;BME280;41637;52.364;9.910;2023-06-22T00:30:48;101180.98;;;18.50;80.78
55733;BME280;41637;52.364;9.910;2023-06-22T00:33:16;101178.50;;;18.46;80.86
55733;BME280;41637;52.364;9.910;2023-06-22T00:35:43;101181.83;;;18.42;80.95
55733;BME280;41637;52.364;9.910;2023-06-22T00:38:10;101188.05;;;18.38;81.12
55733;BME280;41637;52.364;9.910;2023-06-22T00:40:37;101193.36;;;18.32;81.35
55733;BME280;41637;52.364;9.910;2023-06-22T00:43:05;101198.30;;;18.28;81.70
55733;BME280;41637;52.364;9.910;2023-06-22T00:45:32;101202.86;;;18.23;81.81
55733;BME280;41637;52.364;9.910;2023-06-22T00:47:59;101201.15;;;18.18;81.75
55733;BME280;41637;52.364;9.910;2023-06-22T00:50:29;101192.13;;;18.13;81.80
55733;BME280;41637;52.364;9.910;2023-06-22T00:53:03;101183.25;;;18.10;82.05
55733;BME280;41637;52.364;9.910;2023-06-22T00:55:41;101175.02;;;18.06;82.29
55733;BME280;41637;52.364;9.910;2023-06-22T00:58:11;101165.40;;;18.03;82.60
55733;BME280;41637;52.364;9.910;2023-06-22T01:00:39;101166.77;;;18.01;82.80
55733;BME280;41637;52.364;9.910;2023-06-22T01:03:07;101160.88;;;17.99;83.08
55733;BME280;41637;52.364;9.910;2023-06-22T01:05:38;101157.38;;;17.97;83.38
55733;BME280;41637;52.364;9.910;2023-06-22T01:08:26;101159.19;;;17.95;83.38
55733;BME280;41637;52.364;9.910;2023-06-22T01:11:12;101152.84;;;17.91;83.76
55733;BME280;41637;52.364;9.910;2023-06-22T01:13:54;101151.62;;;17.89;83.99
55733;BME280;41637;52.364;9.910;2023-06-22T01:16:27;101149.04;;;17.86;84.24
55733;BME280;41637;52.364;9.910;2023-06-22T01:18:57;101144.33;;;17.83;84.17
55733;BME280;41637;52.364;9.910;2023-06-22T01:21:25;101136.77;;;17.81;84.46
55733;BME280;41637;52.364;9.910;2023-06-22T01:24:10;101140.73;;;17.78;84.70
55733;BME280;41637;52.364;9.910;2023-06-22T01:29:41;101140.09;;;17.72;84.87
55733;BME280;41637;52.364;9.910;2023-06-22T01:32:10;101133.53;;;17.69;85.04
55733;BME280;41637;52.364;9.910;2023-06-22T01:34:38;101127.18;;;17.66;85.07
55733;BME280;41637;52.364;9.910;2023-06-22T01:37:06;101122.04;;;17.63;85.36
55733;BME280;41637;52.364;9.910;2023-06-22T01:39:34;101121.26;;;17.61;85.54
55733;BME280;41637;52.364;9.910;2023-06-22T01:42:02;101127.38;;;17.60;85.88
55733;BME280;41637;52.364;9.910;2023-06-22T01:44:30;101129.93;;;17.59;86.08
55733;BME280;41637;52.364;9.910;2023-06-22T01:46:57;101129.27;;;17.59;86.25
55733;BME280;41637;52.364;9.910;2023-06-22T01:49:24;101130.06;;;17.58;86.37
55733;BME280;41637;52.364;9.910;2023-06-22T01:51:51;101128.49;;;17.57;86.39
55733;BME280;41637;52.364;9.910;2023-06-22T01:54:18;101127.08;;;17.55;86.67
55733;BME280;41637;52.364;9.910;2023-06-22T01:56:45;101124.05;;;17.54;86.80
55733;BME280;41637;52.364;9.910;2023-06-22T01:59:25;101125.27;;;17.52;86.83
55733;BME280;41637;52.364;9.910;2023-06-22T02:02:07;101127.27;;;17.51;87.10
55733;BME280;41637;52.364;9.910;2023-06-22T02:04:42;101127.39;;;17.50;87.13
55733;BME280;41637;52.364;9.910;2023-06-22T02:07:14;101132.07;;;17.49;87.16
55733;BME280;41637;52.364;9.910;2023-06-22T02:09:44;101135.65;;;17.47;87.22
55733;BME280;41637;52.364;9.910;2023-06-22T02:12:13;101131.09;;;17.47;87.32
55733;BME280;41637;52.364;9.910;2023-06-22T02:14:42;101133.39;;;17.47;87.44
55733;BME280;41637;52.364;9.910;2023-06-22T02:17:09;101140.33;;;17.47;87.56
55733;BME280;41637;52.364;9.910;2023-06-22T02:19:37;101139.98;;;17.47;87.52
55733;BME280;41637;52.364;9.910;2023-06-22T02:22:04;101134.86;;;17.46;87.56
55733;BME280;41637;52.364;9.910;2023-06-22T02:24:31;101129.64;;;17.47;87.55
55733;BME280;41637;52.364;9.910;2023-06-22T02:27:00;101133.71;;;17.47;87.41
55733;BME280;41637;52.364;9.910;2023-06-22T02:29:28;101127.73;;;17.45;87.37
55733;BME280;41637;52.364;9.910;2023-06-22T02:31:55;101137.19;;;17.46;87.34
55733;BME280;41637;52.364;9.910;2023-06-22T02:34:21;101137.80;;;17.46;87.38
55733;BME280;41637;52.364;9.910;2023-06-22T02:36:49;101140.45;;;17.45;87.51
55733;BME280;41637;52.364;9.910;2023-06-22T02:39:24;101142.02;;;17.44;87.64
55733;BME280;41637;52.364;9.910;2023-06-22T02:41:54;101145.98;;;17.42;87.58
55733;BME280;41637;52.364;9.910;2023-06-22T02:44:21;101151.44;;;17.41;87.62
55733;BME280;41637;52.364;9.910;2023-06-22T02:46:48;101158.78;;;17.39;87.63
55733;BME280;41637;52.364;9.910;2023-06-22T02:49:15;101159.19;;;17.37;87.75
55733;BME280;41637;52.364;9.910;2023-06-22T02:51:45;101163.77;;;17.37;87.75
55733;BME280;41637;52.364;9.910;2023-06-22T02:54:12;101169.05;;;17.34;87.87
55733;BME280;41637;52.364;9.910;2023-06-22T02:56:40;101175.08;;;17.32;87.96
55733;BME280;41637;52.364;9.910;2023-06-22T02:59:07;101177.19;;;17.31;87.96
55733;BME280;41637;52.364;9.910;2023-06-22T03:01:34;101182.14;;;17.29;87.99
55733;BME280;41637;52.364;9.910;2023-06-22T03:04:08;101185.65;;;17.27;88.15
55733;BME280;41637;52.364;9.910;2023-06-22T03:06:35;101186.23;;;17.24;88.22
55733;BME280;41637;52.364;9.910;2023-06-22T03:09:03;101183.66;;;17.22;88.34
55733;BME280;41637;52.364;9.910;2023-06-22T03:11:32;101189.52;;;17.21;88.50
55733;BME280;41637;52.364;9.910;2023-06-22T03:14:00;101192.13;;;17.20;88.57
55733;BME280;41637;52.364;9.910;2023-06-22T03:16:27;101194.73;;;17.19;88.64
55733;BME280;41637;52.364;9.910;2023-06-22T03:18:54;101188.20;;;17.17;88.79
55733;BME280;41637;52.364;9.910;2023-06-22T03:21:28;101189.73;;;17.18;88.83
55733;BME280;41637;52.364;9.910;2023-06-22T03:23:55;101185.41;;;17.18;88.75
55733;BME280;41637;52.364;9.910;2023-06-22T03:26:22;101189.73;;;17.19;88.91
55733;BME280;41637;52.364;9.910;2023-06-22T03:28:50;101190.59;;;17.19;88.96
55733;BME280;41637;52.364;9.910;2023-06-22T03:31:17;101188.70;;;17.19;89.07
55733;BME280;41637;52.364;9.910;2023-06-22T03:33:51;101189.57;;;17.19;89.16
55733;BME280;41637;52.364;9.910;2023-06-22T03:36:18;101190.02;;;17.21;89.34
55733;BME280;41637;52.364;9.910;2023-06-22T03:38:49;101189.36;;;17.23;89.35
55733;BME280;41637;52.364;9.910;2023-06-22T03:41:16;101185.52;;;17.26;89.41
55733;BME280;41637;52.364;9.910;2023-06-22T03:43:43;101174.92;;;17.31;89.39
55733;BME280;41637;52.364;9.910;2023-06-22T03:46:10;101172.81;;;17.34;89.37
55733;BME280;41637;52.364;9.910;2023-06-22T03:48:38;101176.98;;;17.39;89.27
55733;BME280;41637;52.364;9.910;2023-06-22T03:51:04;101178.17;;;17.45;89.24
55733;BME280;41637;52.364;9.910;2023-06-22T03:53:31;101182.39;;;17.51;89.29
55733;BME280;41637;52.364;9.910;2023-06-22T03:55:58;101182.73;;;17.59;89.16
55733;BME280;41637;52.364;9.910;2023-06-22T03:58:25;101179.39;;;17.66;88.91
55733;BME280;41637;52.364;9.910;2023-06-22T04:00:52;101181.23;;;17.75;88.76
55733;BME280;41637;52.364;9.910;2023-06-22T04:03:19;101178.27;;;17.84;88.53
55733;BME280;41637;52.364;9.910;2023-06-22T04:05:47;101177.61;;;17.95;88.33
55733;BME280;41637;52.364;9.910;2023-06-22T04:08:14;101176.00;;;18.07;88.11
55733;BME280;41637;52.364;9.910;2023-06-22T04:10:41;101181.11;;;18.19;87.52
55733;BME280;41637;52.364;9.910;2023-06-22T04:13:08;101182.48;;;18.28;87.09
55733;BME280;41637;52.364;9.910;2023-06-22T04:15:35;101179.65;;;18.39;86.88
55733;BME280;41637;52.364;9.910;2023-06-22T04:18:02;101182.74;;;18.48;86.41
55733;BME280;41637;52.364;9.910;2023-06-22T04:20:30;101183.30;;;18.57;86.05
55733;BME280;41637;52.364;9.910;2023-06-22T04:22:58;101177.27;;;18.66;85.83
55733;BME280;41637;52.364;9.910;2023-06-22T04:25:25;101172.33;;;18.74;85.40
55733;BME280;41637;52.364;9.910;2023-06-22T04:27:52;101171.86;;;18.79;85.04
55733;BME280;41637;52.364;9.910;2023-06-22T04:30:19;101175.55;;;18.83;84.87
55733;BME280;41637;52.364;9.910;2023-06-22T04:32:46;101176.27;;;18.87;84.66
55733;BME280;41637;52.364;9.910;2023-06-22T04:35:22;101174.73;;;18.94;84.81
55733;BME280;41637;52.364;9.910;2023-06-22T04:37:49;101176.66;;;19.02;84.76
55733;BME280;41637;52.364;9.910;2023-06-22T04:40:16;101173.17;;;19.09;84.57
55733;BME280;41637;52.364;9.910;2023-06-22T04:42:43;101177.30;;;19.20;84.95
55733;BME280;41637;52.364;9.910;2023-06-22T04:45:19;101180.80;;;19.48;85.01
55733;BME280;41637;52.364;9.910;2023-06-22T04:47:46;101183.11;;;19.72;84.10
55733;BME280;41637;52.364;9.910;2023-06-22T04:50:13;101184.54;;;19.96;83.38
55733;BME280;41637;52.364;9.910;2023-06-22T04:52:40;101182.11;;;20.25;82.11
55733;BME280;41637;52.364;9.910;2023-06-22T04:55:08;101177.27;;;20.52;80.77
55733;BME280;41637;52.364;9.910;2023-06-22T04:57:35;101175.58;;;20.75;79.56
55733;BME280;41637;52.364;9.910;2023-06-22T05:00:06;101170.99;;;20.95;78.60
55733;BME280;41637;52.364;9.910;2023-06-22T05:02:39;101169.13;;;21.13;77.60
55733;BME280;41637;52.364;9.910;2023-06-22T05:05:07;101169.98;;;21.29;77.18
55733;BME280;41637;52.364;9.910;2023-06-22T05:07:35;101170.84;;;21.47;76.30
55733;BME280;41637;52.364;9.910;2023-06-22T05:10:03;101170.16;;;21.61;75.53
55733;BME280;41637;52.364;9.910;2023-06-22T05:12:30;101165.11;;;21.71;74.94
55733;BME280;41637;52.364;9.910;2023-06-22T05:14:57;101161.90;;;21.81;74.19
55733;BME280;41637;52.364;9.910;2023-06-22T05:17:24;101161.46;;;21.91;73.73
55733;BME280;41637;52.364;9.910;2023-06-22T05:19:51;101159.74;;;22.05;73.34
55733;BME280;41637;52.364;9.910;2023-06-22T05:22:18;101157.82;;;22.17;73.07
55733;BME280;41637;52.364;9.910;2023-06-22T05:24:46;101155.92;;;22.27;72.46
55733;BME280;41637;52.364;9.910;2023-06-22T05:27:13;101152.57;;;22.36;71.78
55733;BME280;41637;52.364;9.910;2023-06-22T05:29:40;101148.45;;;22.44;71.34
55733;BME280;41637;52.364;9.910;2023-06-22T05:32:07;101150.48;;;22.51;71.11
55733;BME280;41637;52.364;9.910;2023-06-22T05:34:34;101152.28;;;22.63;71.12
55733;BME280;41637;52.364;9.910;2023-06-22T05:37:02;101146.48;;;22.74;70.80
55733;BME280;41637;52.364;9.910;2023-06-22T05:39:28;101151.04;;;22.84;70.45
55733;BME280;41637;52.364;9.910;2023-06-22T05:41:55;101150.02;;;22.93;70.01
55733;BME280;41637;52.364;9.910;2023-06-22T05:44:22;101151.79;;;22.98;69.64
55733;BME280;41637;52.364;9.910;2023-06-22T05:46:49;101149.25;;;23.03;69.29
55733;BME280;41637;52.364;9.910;2023-06-22T05:49:16;101150.42;;;23.08;69.16
55733;BME280;41637;52.364;9.910;2023-06-22T05:51:43;101151.17;;;23.16;69.08
55733;BME280;41637;52.364;9.910;2023-06-22T05:54:10;101151.89;;;23.24;68.83
55733;BME280;41637;52.364;9.910;2023-06-22T05:56:37;101154.73;;;23.29;68.03
55733;BME280;41637;52.364;9.910;2023-06-22T05:59:04;101156.61;;;23.32;68.26
55733;BME280;41637;52.364;9.910;2023-06-22T06:01:31;101156.77;;;23.35;67.82
55733;BME280;41637;52.364;9.910;2023-06-22T06:04:02;101161.04;;;23.39;67.53
55733;BME280;41637;52.364;9.910;2023-06-22T06:06:30;101160.77;;;23.46;67.52
55733;BME280;41637;52.364;9.910;2023-06-22T06:08:57;101156.44;;;23.55;67.80
55733;BME280;41637;52.364;9.910;2023-06-22T06:11:25;101153.41;;;23.65;68.19
55733;BME280;41637;52.364;9.910;2023-06-22T06:13:52;101153.73;;;23.72;67.24
55733;BME280;41637;52.364;9.910;2023-06-22T06:16:19;101149.59;;;23.77;66.76
55733;BME280;41637;52.364;9.910;2023-06-22T06:18:46;101148.75;;;23.87;66.69
55733;BME280;41637;52.364;9.910;2023-06-22T06:21:12;101151.30;;;23.95;66.29
55733;BME280;41637;52.364;9.910;2023-06-22T06:23:39;101150.31;;;24.05;66.20
55733;BME280;41637;52.364;9.910;2023-06-22T06:26:05;101150.81;;;24.16;66.09
55733;BME280;41637;52.364;9.910;2023-06-22T06:28:34;101148.51;;;24.30;65.49
55733;BME280;41637;52.364;9.910;2023-06-22T06:31:01;101139.95;;;24.41;65.20
55733;BME280;41637;52.364;9.910;2023-06-22T06:33:27;101140.86;;;24.54;64.66
55733;BME280;41637;52.364;9.910;2023-06-22T06:35:55;101137.96;;;24.65;64.25
55733;BME280;41637;52.364;9.910;2023-06-22T06:38:22;101135.22;;;24.73;63.72
55733;BME280;41637;52.364;9.910;2023-06-22T06:40:49;101133.20;;;24.80;63.50
55733;BME280;41637;52.364;9.910;2023-06-22T06:43:16;101132.14;;;24.90;63.19
55733;BME280;41637;52.364;9.910;2023-06-22T06:45:43;101132.38;;;25.00;62.46
55733;BME280;41637;52.364;9.910;2023-06-22T06:48:11;101133.52;;;25.09;62.13
55733;BME280;41637;52.364;9.910;2023-06-22T06:50:37;101131.66;;;25.21;61.81
55733;BME280;41637;52.364;9.910;2023-06-22T06:53:04;101127.30;;;25.32;61.01
55733;BME280;41637;52.364;9.910;2023-06-22T06:55:32;101124.52;;;25.41;60.57
55733;BME280;41637;52.364;9.910;2023-06-22T06:58:02;101122.44;;;25.48;59.42
55733;BME280;41637;52.364;9.910;2023-06-22T07:00:33;101120.08;;;25.54;58.88
55733;BME280;41637;52.364;9.910;2023-06-22T07:03:02;101120.39;;;25.55;58.21
55733;BME280;41637;52.364;9.910;2023-06-22T07:05:29;101121.88;;;25.57;58.36
55733;BME280;41637;52.364;9.910;2023-06-22T07:07:56;101122.88;;;25.65;57.95
55733;BME280;41637;52.364;9.910;2023-06-22T07:10:22;101124.13;;;25.76;57.73
55733;BME280;41637;52.364;9.910;2023-06-22T07:12:49;101124.70;;;25.87;57.25
55733;BME280;41637;52.364;9.910;2023-06-22T07:15:16;101125.30;;;25.93;56.52
55733;BME280;41637;52.364;9.910;2023-06-22T07:17:43;101124.83;;;26.00;55.97
55733;BME280;41637;52.364;9.910;2023-06-22T07:20:10;101128.02;;;26.11;55.76
55733;BME280;41637;52.364;9.910;2023-06-22T07:22:40;101125.52;;;26.17;55.38
55733;BME280;41637;52.364;9.910;2023-06-22T07:25:07;101125.75;;;26.23;55.49
55733;BME280;41637;52.364;9.910;2023-06-22T07:27:38;101123.30;;;26.29;55.21
55733;BME280;41637;52.364;9.910;2023-06-22T07:30:07;101126.45;;;26.28;55.03
55733;BME280;41637;52.364;9.910;2023-06-22T07:32:34;101133.48;;;26.30;54.72
55733;BME280;41637;52.364;9.910;2023-06-22T07:35:01;101127.92;;;26.32;54.77
55733;BME280;41637;52.364;9.910;2023-06-22T07:37:28;101119.55;;;26.33;54.68
55733;BME280;41637;52.364;9.910;2023-06-22T07:39:55;101119.94;;;26.31;54.39
55733;BME280;41637;52.364;9.910;2023-06-22T07:42:26;101116.23;;;26.27;54.47
55733;BME280;41637;52.364;9.910;2023-06-22T07:44:53;101114.48;;;26.20;54.30
55733;BME280;41637;52.364;9.910;2023-06-22T07:47:20;101112.39;;;26.13;54.43
55733;BME280;41637;52.364;9.910;2023-06-22T07:49:51;101112.60;;;26.04;54.31
55733;BME280;41637;52.364;9.910;2023-06-22T07:52:21;101118.62;;;25.97;54.74
55733;BME280;41637;52.364;9.910;2023-06-22T07:54:48;101117.32;;;25.94;55.03
55733;BME280;41637;52.364;9.910;2023-06-22T07:57:15;101117.85;;;25.97;55.18
55733;BME280;41637;52.364;9.910;2023-06-22T07:59:41;101121.79;;;26.03;55.08
55733;BME280;41637;52.364;9.910;2023-06-22T08:02:08;101122.02;;;26.10;55.13
55733;BME280;41637;52.364;9.910;2023-06-22T08:04:36;101119.31;;;26.17;54.91
55733;BME280;41637;52.364;9.910;2023-06-22T08:07:03;101117.32;;;26.23;54.83
55733;BME280;41637;52.364;9.910;2023-06-22T08:09:32;101111.02;;;26.32;54.52
55733;BME280;41637;52.364;9.910;2023-06-22T08:11:59;101111.08;;;26.42;54.90
55733;BME280;41637;52.364;9.910;2023-06-22T08:14:26;101116.76;;;26.58;54.75
55733;BME280;41637;52.364;9.910;2023-06-22T08:16:53;101116.39;;;26.72;54.36
55733;BME280;41637;52.364;9.910;2023-06-22T08:19:20;101113.06;;;26.83;53.99
55733;BME280;41637;52.364;9.910;2023-06-22T08:21:47;101117.13;;;26.98;54.11
55733;BME280;41637;52.364;9.910;2023-06-22T08:24:14;101120.48;;;27.17;53.88
55733;BME280;41637;52.364;9.910;2023-06-22T08:26:40;101126.25;;;27.29;52.94
55733;BME280;41637;52.364;9.910;2023-06-22T08:29:07;101131.25;;;27.34;52.81
55733;BME280;41637;52.364;9.910;2023-06-22T08:31:34;101127.63;;;27.39;52.28
55733;BME280;41637;52.364;9.910;2023-06-22T08:34:01;101124.59;;;27.34;51.99
55733;BME280;41637;52.364;9.910;2023-06-22T08:36:28;101124.48;;;27.34;52.33
55733;BME280;41637;52.364;9.910;2023-06-22T08:39:01;101126.71;;;27.35;52.18
55733;BME280;41637;52.364;9.910;2023-06-22T08:41:29;101132.44;;;27.37;52.39
55733;BME280;41637;52.364;9.910;2023-06-22T08:43:56;101133.18;;;27.42;52.43
55733;BME280;41637;52.364;9.910;2023-06-22T08:46:23;101135.34;;;27.44;52.76
55733;BME280;41637;52.364;9.910;2023-06-22T08:48:56;101128.08;;;27.50;52.84
55733;BME280;41637;52.364;9.910;2023-06-22T08:51:24;101131.41;;;27.61;52.87
55733;BME280;41637;52.364;9.910;2023-06-22T08:53:51;101130.63;;;27.68;52.66
55733;BME280;41637;52.364;9.910;2023-06-22T08:56:17;101132.02;;;27.76;52.81
55733;BME280;41637;52.364;9.910;2023-06-22T08:58:45;101120.85;;;27.89;52.58
55733;BME280;41637;52.364;9.910;2023-06-22T09:01:11;101111.74;;;27.98;52.02
55733;BME280;41637;52.364;9.910;2023-06-22T09:03:38;101108.23;;;28.04;52.10
55733;BME280;41637;52.364;9.910;2023-06-22T09:06:05;101105.93;;;28.12;52.27
55733;BME280;41637;52.364;9.910;2023-06-22T09:08:32;101106.41;;;28.22;51.76
55733;BME280;41637;52.364;9.910;2023-06-22T09:10:59;101107.79;;;28.27;51.64
55733;BME280;41637;52.364;9.910;2023-06-22T09:13:27;101102.88;;;28.35;51.83
55733;BME280;41637;52.364;9.910;2023-06-22T09:15:54;101100.36;;;28.51;51.47
55733;BME280;41637;52.364;9.910;2023-06-22T09:18:21;101100.30;;;28.67;50.92
55733;BME280;41637;52.364;9.910;2023-06-22T09:20:48;101098.84;;;28.83;50.60
55733;BME280;41637;52.364;9.910;2023-06-22T09:23:16;101088.38;;;29.02;50.08
55733;BME280;41637;52.364;9.910;2023-06-22T09:25:42;101080.49;;;29.21;49.48
55733;BME280;41637;52.364;9.910;2023-06-22T09:28:09;101078.67;;;29.37;48.91
55733;BME280;41637;52.364;9.910;2023-06-22T09:30:36;101074.27;;;29.52;49.04
55733;BME280;41637;52.364;9.910;2023-06-22T09:33:02;101067.86;;;29.74;48.56
55733;BME280;41637;52.364;9.910;2023-06-22T09:35:29;101068.67;;;29.94;48.56
55733;BME280;41637;52.364;9.910;2023-06-22T09:37:56;101070.00;;;30.08;48.17
55733;BME280;41637;52.364;9.910;2023-06-22T09:40:23;101068.02;;;30.13;47.34
55733;BME280;41637;52.364;9.910;2023-06-22T09:42:50;101067.21;;;30.08;47.27
55733;BME280;41637;52.364;9.910;2023-06-22T09:45:17;101058.95;;;30.07;47.46
55733;BME280;41637;52.364;9.910;2023-06-22T09:47:43;101059.72;;;30.07;47.18
55733;BME280;41637;52.364;9.910;2023-06-22T09:50:10;101061.54;;;30.06;47.48
55733;BME280;41637;52.364;9.910;2023-06-22T09:52:37;101067.95;;;30.06;47.28
55733;BME280;41637;52.364;9.910;2023-06-22T09:55:07;101071.61;;;30.02;47.08
55733;BME280;41637;52.364;9.910;2023-06-22T09:57:34;101072.36;;;30.00;47.39
55733;BME280;41637;52.364;9.910;2023-06-22T10:00:01;101065.83;;;30.10;47.25
55733;BME280;41637;52.364;9.910;2023-06-22T10:02:27;101059.83;;;30.22;47.08
55733;BME280;41637;52.364;9.910;2023-06-22T10:04:56;101056.09;;;30.37;46.45
55733;BME280;41637;52.364;9.910;2023-06-22T10:07:23;101060.83;;;30.61;46.45
55733;BME280;41637;52.364;9.910;2023-06-22T10:09:49;101059.45;;;30.89;46.67
55733;BME280;41637;52.364;9.910;2023-06-22T10:12:16;101063.10;;;31.16;46.27
55733;BME280;41637;52.364;9.910;2023-06-22T10:14:43;101061.44;;;31.39;46.08
55733;BME280;41637;52.364;9.910;2023-06-22T10:17:10;101057.61;;;31.59;45.23
55733;BME280;41637;52.364;9.910;2023-06-22T10:19:37;101051.05;;;31.73;44.82
55733;BME280;41637;52.364;9.910;2023-06-22T10:22:05;101053.48;;;31.84;44.32
55733;BME280;41637;52.364;9.910;2023-06-22T10:24:32;101048.75;;;31.93;44.18
55733;BME280;41637;52.364;9.910;2023-06-22T10:26:58;101050.89;;;32.03;44.15
55733;BME280;41637;52.364;9.910;2023-06-22T10:29:25;101050.29;;;32.05;43.80
55733;BME280;41637;52.364;9.910;2023-06-22T10:31:52;101054.36;;;31.97;43.40
55733;BME280;41637;52.364;9.910;2023-06-22T10:34:19;101049.23;;;31.85;43.48
55733;BME280;41637;52.364;9.910;2023-06-22T10:36:46;101038.45;;;31.75;43.48
55733;BME280;41637;52.364;9.910;2023-06-22T10:39:15;101037.70;;;31.72;43.72
55733;BME280;41637;52.364;9.910;2023-06-22T10:41:42;101032.77;;;31.71;43.70
55733;BME280;41637;52.364;9.910;2023-06-22T10:44:09;101036.89;;;31.66;43.77
55733;BME280;41637;52.364;9.910;2023-06-22T10:46:35;101033.67;;;31.63;43.94
55733;BME280;41637;52.364;9.910;2023-06-22T10:49:02;101033.39;;;31.58;43.68
55733;BME280;41637;52.364;9.910;2023-06-22T10:51:29;101025.15;;;31.54;44.17
55733;BME280;41637;52.364;9.910;2023-06-22T10:53:57;101017.17;;;31.58;44.00
55733;BME280;41637;52.364;9.910;2023-06-22T10:56:24;101009.79;;;31.61;44.40
55733;BME280;41637;52.364;9.910;2023-06-22T10:58:50;101006.76;;;31.69;44.10
55733;BME280;41637;52.364;9.910;2023-06-22T11:01:17;101005.31;;;31.73;43.70
55733;BME280;41637;52.364;9.910;2023-06-22T11:04:01;101007.23;;;31.70;43.22
55733;BME280;41637;52.364;9.910;2023-06-22T11:06:28;101001.58;;;31.68;43.79
55733;BME280;41637;52.364;9.910;2023-06-22T11:08:55;100996.84;;;31.68;43.42
55733;BME280;41637;52.364;9.910;2023-06-22T11:11:37;100995.66;;;31.70;43.96
55733;BME280;41637;52.364;9.910;2023-06-22T11:14:04;100994.20;;;31.77;43.63
55733;BME280;41637;52.364;9.910;2023-06-22T11:16:31;100994.64;;;31.81;43.66
55733;BME280;41637;52.364;9.910;2023-06-22T11:18:58;100998.65;;;31.78;42.99
55733;BME280;41637;52.364;9.910;2023-06-22T11:21:24;100998.52;;;31.77;43.25
55733;BME280;41637;52.364;9.910;2023-06-22T11:23:51;100993.72;;;31.78;43.44
55733;BME280;41637;52.364;9.910;2023-06-22T11:26:18;100988.45;;;31.78;43.04
55733;BME280;41637;52.364;9.910;2023-06-22T11:28:44;100991.99;;;31.67;43.23
55733;BME280;41637;52.364;9.910;2023-06-22T11:31:11;100991.48;;;31.56;43.45
55733;BME280;41637;52.364;9.910;2023-06-22T11:33:41;100993.90;;;31.49;43.90
55733;BME280;41637;52.364;9.910;2023-06-22T11:36:08;100988.45;;;31.41;44.00
55733;BME280;41637;52.364;9.910;2023-06-22T11:38:35;100983.88;;;31.40;44.16
55733;BME280;41637;52.364;9.910;2023-06-22T11:41:03;100983.30;;;31.41;44.23
55733;BME280;41637;52.364;9.910;2023-06-22T11:43:29;100979.46;;;31.47;44.21
55733;BME280;41637;52.364;9.910;2023-06-22T11:45:56;100971.74;;;31.61;44.32
55733;BME280;41637;52.364;9.910;2023-06-22T11:48:24;100960.13;;;31.83;44.21
55733;BME280;41637;52.364;9.910;2023-06-22T11:50:51;100948.34;;;32.20;44.20
55733;BME280;41637;52.364;9.910;2023-06-22T11:53:18;100947.08;;;32.74;43.50
55733;BME280;41637;52.364;9.910;2023-06-22T11:55:44;100936.61;;;33.15;42.61
55733;BME280;41637;52.364;9.910;2023-06-22T11:58:11;100928.09;;;33.55;41.84
55733;BME280;41637;52.364;9.910;2023-06-22T12:00:38;100916.79;;;34.01;40.88
55733;BME280;41637;52.364;9.910;2023-06-22T12:03:18;100917.66;;;34.56;40.33
55733;BME280;41637;52.364;9.910;2023-06-22T12:05:45;100922.13;;;34.97;38.96
55733;BME280;41637;52.364;9.910;2023-06-22T12:08:14;100916.27;;;35.31;38.18
55733;BME280;41637;52.364;9.910;2023-06-22T12:10:41;100909.41;;;35.63;37.60
55733;BME280;41637;52.364;9.910;2023-06-22T12:13:08;100903.52;;;35.87;36.78
55733;BME280;41637;52.364;9.910;2023-06-22T12:15:40;100897.52;;;36.01;36.44
55733;BME280;41637;52.364;9.910;2023-06-22T12:18:14;100897.91;;;36.05;36.11
55733;BME280;41637;52.364;9.910;2023-06-22T12:20:42;100892.08;;;36.19;36.31
55733;BME280;41637;52.364;9.910;2023-06-22T12:23:16;100893.45;;;36.39;36.22
55733;BME280;41637;52.364;9.910;2023-06-22T12:25:44;100886.86;;;36.50;35.95
55733;BME280;41637;52.364;9.910;2023-06-22T12:28:14;100885.90;;;36.43;35.38
55733;BME280;41637;52.364;9.910;2023-06-22T12:30:51;100878.63;;;36.35;35.76
55733;BME280;41637;52.364;9.910;2023-06-22T12:33:23;100877.02;;;36.13;35.35
55733;BME280;41637;52.364;9.910;2023-06-22T12:35:50;100874.02;;;35.77;35.12
55733;BME280;41637;52.364;9.910;2023-06-22T12:38:16;100871.97;;;35.46;35.71
55733;BME280;41637;52.364;9.910;2023-06-22T12:40:43;100870.84;;;35.17;36.17
55733;BME280;41637;52.364;9.910;2023-06-22T12:43:10;100871.52;;;34.87;36.41
55733;BME280;41637;52.364;9.910;2023-06-22T12:45:37;100867.90;;;34.57;36.51
55733;BME280;41637;52.364;9.910;2023-06-22T12:48:03;100870.00;;;34.27;36.93
55733;BME280;41637;52.364;9.910;2023-06-22T12:50:30;100871.90;;;34.09;37.33
55733;BME280;41637;52.364;9.910;2023-06-22T12:52:57;100866.59;;;34.08;37.83
55733;BME280;41637;52.364;9.910;2023-06-22T12:55:24;100862.69;;;34.05;37.79
55733;BME280;41637;52.364;9.910;2023-06-22T12:57:51;100861.85;;;34.02;38.30